createdAt,value
2018-07-22T00:02:26.749Z,93.10
2018-07-22T00:04:56.097Z,93.30
2018-07-22T00:07:25.311Z,93.30
2018-07-22T00:09:54.472Z,93.30
2018-07-22T00:12:23.660Z,93.10
2018-07-22T00:14:52.904Z,93.10
2018-07-22T00:17:22.109Z,93.20
2018-07-22T00:19:51.340Z,93.00
2018-07-22T00:22:20.557Z,92.60
2018-07-22T00:24:49.801Z,92.50
2018-07-22T00:27:19.005Z,92.60
2018-07-22T00:29:48.232Z,92.60
2018-07-22T00:32:17.452Z,92.40
2018-07-22T00:34:46.660Z,92.30
2018-07-22T00:37:15.837Z,92.50
2018-07-22T00:39:45.036Z,92.40
2018-07-22T00:42:14.288Z,92.50
2018-07-22T00:44:43.511Z,92.60
2018-07-22T00:47:12.712Z,92.30
2018-07-22T00:49:41.953Z,92.20
2018-07-22T00:52:11.162Z,92.20
2018-07-22T00:54:40.601Z,92.40
2018-07-22T00:57:09.782Z,92.40
2018-07-22T00:59:39.184Z,92.30
2018-07-22T01:02:08.417Z,92.10
2018-07-22T01:04:37.654Z,92.10
2018-07-22T01:07:06.925Z,92.20
2018-07-22T01:09:36.183Z,92.30
2018-07-22T01:12:05.422Z,92.20
2018-07-22T01:14:34.649Z,92.20
2018-07-22T01:17:03.846Z,92.60
2018-07-22T01:19:33.072Z,92.40
2018-07-22T01:22:02.281Z,92.60
2018-07-22T01:24:31.513Z,93.00
2018-07-22T01:27:00.737Z,93.30
2018-07-22T01:29:29.963Z,92.80
2018-07-22T01:31:59.163Z,92.50
2018-07-22T01:34:28.369Z,92.70
2018-07-22T01:36:57.570Z,92.70
2018-07-22T01:39:26.765Z,92.30
2018-07-22T01:41:55.973Z,92.40
2018-07-22T01:44:25.195Z,92.40
2018-07-22T01:46:54.426Z,92.60
2018-07-22T01:49:23.628Z,92.90
2018-07-22T01:51:52.895Z,93.20
2018-07-22T01:54:22.102Z,93.30
2018-07-22T01:56:51.420Z,93.40
2018-07-22T01:59:20.702Z,93.40
2018-07-22T02:01:49.913Z,93.60
2018-07-22T02:04:19.121Z,93.70
2018-07-22T02:06:48.326Z,93.80
2018-07-22T02:09:17.570Z,93.90
2018-07-22T02:11:46.804Z,93.50
2018-07-22T02:14:16.033Z,93.60
2018-07-22T02:16:45.395Z,93.80
2018-07-22T02:19:14.655Z,93.70
2018-07-22T02:21:43.881Z,93.50
2018-07-22T02:24:13.105Z,93.60
2018-07-22T02:26:42.303Z,93.00
2018-07-22T02:29:11.600Z,93.30
2018-07-22T02:31:41.055Z,93.20
2018-07-22T02:34:10.305Z,93.30
2018-07-22T02:36:39.839Z,93.40
2018-07-22T02:39:11.901Z,93.00
2018-07-22T02:41:41.231Z,93.40
2018-07-22T02:44:10.918Z,92.90
2018-07-22T02:46:40.148Z,92.80
2018-07-22T02:49:09.331Z,92.90
2018-07-22T02:51:38.651Z,92.90
2018-07-22T02:54:07.808Z,92.90
2018-07-22T02:56:37.015Z,92.60
2018-07-22T02:59:06.722Z,92.70
2018-07-22T03:01:37.759Z,93.30
2018-07-22T03:04:08.310Z,93.20
2018-07-22T03:06:37.552Z,93.40
2018-07-22T03:09:09.376Z,93.00
2018-07-22T03:11:38.664Z,92.90
2018-07-22T03:14:08.008Z,92.90
2018-07-22T03:16:37.251Z,93.20
2018-07-22T03:19:06.442Z,93.00
2018-07-22T03:21:35.665Z,93.00
2018-07-22T03:24:04.900Z,92.80
2018-07-22T03:26:34.112Z,92.40
2018-07-22T03:29:03.301Z,92.70
2018-07-22T03:31:32.504Z,92.70
2018-07-22T03:34:01.730Z,92.90
2018-07-22T03:36:30.967Z,92.70
2018-07-22T03:39:00.192Z,92.80
2018-07-22T03:41:29.380Z,92.70
2018-07-22T03:43:58.650Z,92.70
2018-07-22T03:46:27.844Z,92.60
2018-07-22T03:48:57.062Z,92.60
2018-07-22T03:51:26.235Z,92.60
2018-07-22T03:53:55.918Z,92.40
2018-07-22T03:56:25.156Z,93.00
2018-07-22T03:58:54.395Z,93.50
2018-07-22T04:01:23.613Z,92.60
2018-07-22T04:03:53.292Z,92.10
2018-07-22T04:06:22.476Z,92.10
2018-07-22T04:08:51.724Z,92.10
2018-07-22T04:11:22.485Z,92.10
2018-07-22T04:16:20.691Z,92.00
2018-07-22T04:18:52.919Z,93.00
2018-07-22T04:21:23.770Z,93.30
2018-07-22T04:23:53.026Z,93.30
2018-07-22T04:26:22.595Z,93.40
2018-07-22T04:28:52.205Z,93.50
2018-07-22T04:31:21.704Z,93.70
2018-07-22T04:33:50.975Z,93.40
2018-07-22T04:36:20.175Z,93.40
2018-07-22T04:38:49.417Z,93.50
2018-07-22T04:41:18.621Z,93.40
2018-07-22T04:43:47.832Z,93.30
2018-07-22T04:46:17.104Z,93.60
2018-07-22T04:48:46.379Z,93.50
2018-07-22T04:51:15.836Z,93.50
2018-07-22T04:53:45.063Z,93.30
2018-07-22T04:56:14.268Z,93.40
2018-07-22T04:58:43.529Z,93.30
2018-07-22T05:01:12.781Z,93.60
2018-07-22T05:03:41.992Z,93.30
2018-07-22T05:06:11.282Z,93.10
2018-07-22T05:08:40.512Z,93.30
2018-07-22T05:11:09.702Z,93.20
2018-07-22T05:13:38.971Z,93.50
2018-07-22T05:16:08.172Z,93.50
2018-07-22T05:18:37.356Z,93.60
2018-07-22T05:21:06.586Z,93.50
2018-07-22T05:23:35.835Z,93.50
2018-07-22T05:26:05.276Z,93.60
2018-07-22T05:28:34.454Z,93.50
2018-07-22T05:31:03.729Z,93.60
2018-07-22T05:33:32.908Z,93.60
2018-07-22T05:36:02.117Z,93.70
2018-07-22T05:38:31.344Z,93.70
2018-07-22T05:41:00.553Z,94.00
2018-07-22T05:43:29.772Z,93.50
2018-07-22T05:45:58.998Z,93.40
2018-07-22T05:48:28.177Z,93.30
2018-07-22T05:50:57.383Z,93.00
2018-07-22T05:53:26.561Z,92.90
2018-07-22T05:55:55.817Z,92.90
2018-07-22T05:58:24.993Z,92.80
2018-07-22T06:00:54.287Z,92.80
2018-07-22T06:03:23.662Z,92.60
2018-07-22T06:05:52.889Z,92.40
2018-07-22T06:08:22.054Z,92.50
2018-07-22T06:10:51.411Z,92.40
2018-07-22T06:13:20.658Z,92.90
2018-07-22T06:15:49.886Z,92.60
2018-07-22T06:18:19.085Z,92.60
2018-07-22T06:20:48.342Z,92.50
2018-07-22T06:23:17.552Z,92.60
2018-07-22T06:25:46.831Z,92.60
2018-07-22T06:28:16.064Z,92.60
2018-07-22T06:30:45.278Z,92.60
2018-07-22T06:33:14.553Z,92.60
2018-07-22T06:35:43.804Z,92.60
2018-07-22T06:38:13.026Z,92.60
2018-07-22T06:40:42.280Z,92.40
2018-07-22T06:43:11.467Z,92.40
2018-07-22T06:45:40.701Z,92.50
2018-07-22T06:48:09.949Z,92.40
2018-07-22T06:50:39.160Z,92.30
2018-07-22T06:53:08.329Z,92.20
2018-07-22T06:55:37.624Z,92.60
2018-07-22T06:58:06.909Z,92.60
2018-07-22T07:00:36.109Z,92.30
2018-07-22T07:03:06.381Z,91.50
2018-07-22T07:08:04.812Z,91.80
2018-07-22T07:10:34.044Z,91.70
2018-07-22T07:13:03.277Z,91.90
2018-07-22T07:15:32.473Z,91.50
2018-07-22T07:18:01.669Z,91.70
2018-07-22T07:20:30.874Z,92.00
2018-07-22T07:23:00.165Z,92.00
2018-07-22T07:25:29.335Z,91.90
2018-07-22T07:27:58.615Z,91.70
2018-07-22T07:30:27.809Z,91.30
2018-07-22T07:32:57.020Z,91.30
2018-07-22T07:35:26.236Z,91.20
2018-07-22T07:37:55.457Z,91.10
2018-07-22T07:40:24.679Z,91.10
2018-07-22T07:42:54.472Z,90.90
2018-07-22T07:45:23.687Z,90.60
2018-07-22T07:47:52.927Z,91.20
2018-07-22T07:50:22.165Z,91.60
2018-07-22T07:52:51.387Z,91.30
2018-07-22T07:55:20.580Z,91.00
2018-07-22T07:57:49.815Z,91.30
2018-07-22T08:00:19.034Z,91.10
2018-07-22T08:02:48.354Z,91.10
2018-07-22T08:05:17.547Z,91.20
2018-07-22T08:07:46.857Z,91.10
2018-07-22T08:10:16.097Z,91.30
2018-07-22T08:12:45.365Z,91.10
2018-07-22T08:15:14.611Z,91.10
2018-07-22T08:17:43.876Z,91.20
2018-07-22T08:20:13.101Z,91.30
2018-07-22T08:22:42.309Z,91.30
2018-07-22T08:25:11.572Z,91.20
2018-07-22T08:27:40.872Z,91.40
2018-07-22T08:30:10.078Z,91.40
2018-07-22T08:32:39.301Z,91.80
2018-07-22T08:35:08.502Z,91.70
2018-07-22T08:37:37.692Z,91.60
2018-07-22T08:40:07.406Z,91.50
2018-07-22T08:42:36.605Z,91.30
2018-07-22T08:45:06.863Z,91.40
2018-07-22T08:47:36.062Z,91.50
2018-07-22T08:50:05.565Z,91.20
2018-07-22T08:52:34.857Z,91.20
2018-07-22T08:55:04.071Z,91.30
2018-07-22T08:57:33.262Z,91.40
2018-07-22T09:00:02.490Z,91.60
2018-07-22T09:02:31.709Z,91.50
2018-07-22T09:05:00.960Z,91.40
2018-07-22T09:07:30.193Z,91.70
2018-07-22T09:09:59.460Z,91.80
2018-07-22T09:12:28.714Z,91.80
2018-07-22T09:14:57.999Z,91.70
2018-07-22T09:17:27.253Z,91.70
2018-07-22T09:19:56.563Z,91.60
2018-07-22T09:22:25.842Z,91.50
2018-07-22T09:24:55.690Z,91.50
2018-07-22T09:27:24.946Z,91.40
2018-07-22T09:29:54.197Z,91.50
2018-07-22T09:32:23.418Z,91.70
2018-07-22T09:34:52.812Z,91.50
2018-07-22T09:37:22.040Z,91.60
2018-07-22T09:39:51.260Z,91.60
2018-07-22T09:42:21.615Z,91.70
2018-07-22T09:44:50.886Z,91.60
2018-07-22T09:47:20.208Z,91.90
2018-07-22T09:49:49.550Z,91.80
2018-07-22T09:52:18.864Z,91.50
2018-07-22T09:54:48.164Z,91.60
2018-07-22T09:57:17.442Z,91.50
2018-07-22T09:59:46.699Z,91.30
2018-07-22T10:02:15.960Z,92.20
2018-07-22T10:04:45.397Z,91.80
2018-07-22T10:07:14.691Z,91.70
2018-07-22T10:09:43.942Z,91.50
2018-07-22T10:12:13.255Z,91.70
2018-07-22T10:14:42.565Z,92.00
2018-07-22T10:17:11.768Z,92.40
2018-07-22T10:19:40.977Z,91.80
2018-07-22T10:22:10.353Z,91.50
2018-07-22T10:24:39.644Z,91.60
2018-07-22T10:27:08.880Z,91.20
2018-07-22T10:29:38.184Z,91.60
2018-07-22T10:32:07.824Z,91.30
2018-07-22T10:34:37.093Z,90.60
2018-07-22T10:37:06.384Z,90.90
2018-07-22T10:39:35.688Z,91.10
2018-07-22T10:42:04.921Z,91.60
2018-07-22T10:44:34.218Z,90.50
2018-07-22T10:47:03.440Z,90.70
2018-07-22T10:49:32.671Z,90.00
2018-07-22T10:52:01.952Z,90.40
2018-07-22T10:54:31.148Z,89.90
2018-07-22T10:57:00.376Z,90.10
2018-07-22T10:59:29.628Z,89.00
2018-07-22T11:01:58.876Z,88.90
2018-07-22T11:04:28.114Z,88.30
2018-07-22T11:06:57.385Z,87.40
2018-07-22T11:09:26.999Z,86.30
2018-07-22T11:11:56.417Z,86.90
2018-07-22T11:14:25.820Z,85.60
2018-07-22T11:16:55.221Z,86.40
2018-07-22T11:19:24.550Z,84.90
2018-07-22T11:21:53.801Z,84.50
2018-07-22T11:24:23.236Z,83.30
2018-07-22T11:26:52.649Z,78.90
2018-07-22T11:29:22.008Z,69.90
2018-07-22T11:31:51.300Z,69.10
2018-07-22T11:34:20.680Z,66.30
2018-07-22T11:36:49.936Z,65.70
2018-07-22T11:39:19.277Z,63.10
2018-07-22T11:41:48.548Z,66.50
2018-07-22T11:44:17.907Z,66.10
2018-07-22T11:46:47.308Z,66.40
2018-07-22T11:49:16.591Z,65.40
2018-07-22T11:51:45.904Z,65.80
2018-07-22T11:54:15.237Z,65.20
2018-07-22T11:56:44.525Z,63.60
2018-07-22T11:59:13.869Z,64.60
2018-07-22T12:01:43.076Z,64.90
2018-07-22T12:04:12.412Z,62.70
2018-07-22T12:06:41.688Z,59.80
2018-07-22T12:09:12.328Z,58.30
2018-07-22T12:11:41.937Z,59.00
2018-07-22T12:14:11.142Z,57.10
2018-07-22T12:16:40.384Z,57.10
2018-07-22T12:19:09.639Z,56.50
2018-07-22T12:21:38.836Z,56.80
2018-07-22T12:24:08.231Z,56.90
2018-07-22T12:26:37.488Z,57.30
2018-07-22T12:29:06.962Z,58.30
2018-07-22T12:31:36.103Z,57.50
2018-07-22T12:34:05.373Z,58.20
2018-07-22T12:36:34.838Z,58.70
2018-07-22T12:39:06.494Z,59.70
2018-07-22T12:41:35.723Z,57.60
2018-07-22T12:44:05.123Z,56.70
2018-07-22T12:46:34.391Z,56.90
2018-07-22T12:49:03.695Z,56.60
2018-07-22T12:51:32.895Z,56.70
2018-07-22T12:54:02.203Z,56.40
2018-07-22T12:56:31.539Z,56.40
2018-07-22T12:59:00.840Z,55.70
2018-07-22T13:01:30.169Z,56.20
2018-07-22T13:03:59.461Z,56.90
2018-07-22T13:06:28.746Z,56.20
2018-07-22T13:08:57.986Z,56.80
2018-07-22T13:11:27.259Z,56.90
2018-07-22T13:13:56.522Z,57.50
2018-07-22T13:16:25.758Z,57.80
2018-07-22T13:18:55.124Z,58.80
2018-07-22T13:21:24.304Z,58.80
2018-07-22T13:23:53.639Z,58.30
2018-07-22T13:28:51.924Z,57.80
2018-07-22T13:31:21.177Z,56.70
2018-07-22T13:33:50.416Z,55.50
2018-07-22T13:36:19.688Z,55.30
2018-07-22T13:38:48.884Z,54.60
2018-07-22T13:41:18.173Z,55.10
2018-07-22T13:43:47.502Z,57.10
2018-07-22T13:46:17.089Z,56.00
2018-07-22T13:48:46.316Z,56.40
2018-07-22T13:51:15.560Z,56.40
2018-07-22T13:53:44.765Z,56.60
2018-07-22T13:56:14.158Z,56.50
2018-07-22T13:58:43.381Z,56.20
2018-07-22T14:01:12.647Z,55.70
2018-07-22T14:03:41.915Z,55.80
2018-07-22T14:06:11.221Z,55.60
2018-07-22T14:08:40.425Z,55.60
2018-07-22T14:11:09.659Z,54.50
2018-07-22T14:13:38.884Z,55.00
2018-07-22T14:16:08.209Z,55.40
2018-07-22T14:18:37.558Z,54.90
2018-07-22T14:21:06.809Z,55.60
2018-07-22T14:23:36.264Z,55.70
2018-07-22T14:26:06.248Z,55.30
2018-07-22T14:28:35.631Z,54.30
2018-07-22T14:31:05.739Z,53.50
2018-07-22T14:33:35.059Z,53.40
2018-07-22T14:36:04.357Z,53.60
2018-07-22T14:38:33.582Z,53.80
2018-07-22T14:41:03.858Z,53.20
2018-07-22T14:43:33.085Z,52.80
2018-07-22T14:46:02.898Z,52.20
2018-07-22T14:48:32.145Z,51.80
2018-07-22T14:51:02.107Z,53.00
2018-07-22T14:53:31.407Z,53.70
2018-07-22T14:56:00.895Z,54.10
2018-07-22T14:58:30.399Z,53.50
2018-07-22T15:00:59.623Z,53.20
2018-07-22T15:03:29.493Z,53.10
2018-07-22T15:05:58.868Z,53.10
2018-07-22T15:08:28.163Z,53.30
2018-07-22T15:10:57.383Z,53.60
2018-07-22T15:13:26.677Z,53.80
2018-07-22T15:15:56.423Z,54.30
2018-07-22T15:18:25.717Z,54.10
2018-07-22T15:20:55.101Z,53.20
2018-07-22T15:23:24.460Z,52.30
2018-07-22T15:25:54.460Z,51.40
2018-07-22T15:28:23.684Z,50.10
2018-07-22T15:30:53.573Z,50.40
2018-07-22T15:33:23.018Z,50.10
2018-07-22T15:35:52.275Z,49.60
2018-07-22T15:38:21.537Z,49.60
2018-07-22T15:40:50.961Z,48.80
2018-07-22T15:43:20.269Z,47.90
2018-07-22T15:45:49.514Z,48.30
2018-07-22T15:48:18.816Z,48.30
2018-07-22T15:50:48.131Z,47.40
2018-07-22T15:53:17.617Z,48.60
2018-07-22T15:55:47.014Z,49.10
2018-07-22T15:58:16.413Z,49.40
2018-07-22T16:00:45.813Z,50.40
2018-07-22T16:03:15.091Z,50.30
2018-07-22T16:05:44.749Z,50.50
2018-07-22T16:08:13.945Z,50.70
2018-07-22T16:10:43.253Z,50.80
2018-07-22T16:13:13.192Z,49.80
2018-07-22T16:15:42.442Z,49.10
2018-07-22T16:18:12.178Z,48.50
2018-07-22T16:20:41.398Z,48.70
2018-07-22T16:23:10.683Z,48.50
2018-07-22T16:25:40.023Z,48.90
2018-07-22T16:28:09.380Z,49.30
2018-07-22T16:30:38.668Z,49.40
2018-07-22T16:33:08.046Z,49.50
2018-07-22T16:35:37.308Z,49.30
2018-07-22T16:38:06.635Z,49.60
2018-07-22T16:40:36.072Z,49.40
2018-07-22T16:43:05.319Z,49.70
2018-07-22T16:45:34.636Z,49.80
2018-07-22T16:48:03.846Z,49.80
2018-07-22T16:50:33.200Z,49.80
2018-07-22T16:53:02.521Z,50.00
2018-07-22T16:55:31.773Z,50.00
2018-07-22T16:58:01.137Z,49.90
2018-07-22T17:00:30.673Z,50.40
2018-07-22T17:02:59.864Z,51.00
2018-07-22T17:05:29.242Z,51.10
2018-07-22T17:07:58.478Z,51.40
2018-07-22T17:10:27.807Z,51.70
2018-07-22T17:12:57.275Z,51.40
2018-07-22T17:15:26.537Z,51.60
2018-07-22T17:17:55.880Z,51.60
2018-07-22T17:20:25.195Z,51.90
2018-07-22T17:22:54.660Z,52.20
2018-07-22T17:25:24.015Z,52.60
2018-07-22T17:27:53.436Z,52.90
2018-07-22T17:30:22.824Z,52.90
2018-07-22T17:32:52.225Z,53.10
2018-07-22T17:35:21.476Z,52.50
2018-07-22T17:37:50.925Z,52.70
2018-07-22T17:40:20.233Z,52.80
2018-07-22T17:42:49.615Z,53.10
2018-07-22T17:45:19.805Z,53.20
2018-07-22T17:47:49.080Z,53.50
2018-07-22T17:50:18.477Z,54.70
2018-07-22T17:52:47.787Z,54.60
2018-07-22T17:55:17.337Z,55.20
2018-07-22T17:57:46.762Z,55.90
2018-07-22T18:00:16.165Z,56.10
2018-07-22T18:02:52.602Z,56.70
2018-07-22T18:05:21.883Z,56.80
2018-07-22T18:07:51.164Z,57.10
2018-07-22T18:10:20.406Z,57.10
2018-07-22T18:12:49.649Z,56.80
2018-07-22T18:15:18.900Z,56.70
2018-07-22T18:17:48.112Z,56.90
2018-07-22T18:20:17.396Z,56.90
2018-07-22T18:22:46.596Z,57.20
2018-07-22T18:25:15.845Z,57.50
2018-07-22T18:27:45.070Z,57.80
2018-07-22T18:30:14.289Z,58.20
2018-07-22T18:32:43.517Z,58.70
2018-07-22T18:35:12.722Z,59.00
2018-07-22T18:37:42.992Z,59.40
2018-07-22T18:40:12.201Z,59.90
2018-07-22T18:42:41.492Z,60.20
2018-07-22T18:45:10.780Z,60.50
2018-07-22T18:50:40.207Z,61.30
2018-07-22T18:53:09.400Z,61.20
2018-07-22T18:55:38.652Z,61.70
2018-07-22T18:58:07.884Z,61.80
2018-07-22T19:03:38.981Z,62.60
2018-07-22T19:11:37.263Z,63.60
2018-07-22T19:14:06.601Z,64.50
2018-07-22T19:16:35.872Z,65.30
2018-07-22T19:19:05.134Z,65.50
2018-07-22T19:21:34.393Z,65.80
2018-07-22T19:24:03.914Z,66.00
2018-07-22T19:26:33.350Z,65.90
2018-07-22T19:29:02.576Z,65.80
2018-07-22T19:31:31.813Z,66.70
2018-07-22T19:34:20.351Z,67.70
2018-07-22T19:36:49.622Z,68.20
2018-07-22T19:39:18.897Z,68.50
2018-07-22T19:41:48.142Z,68.70
2018-07-22T19:44:17.401Z,69.20
2018-07-22T19:46:46.679Z,68.90
2018-07-22T19:49:15.958Z,69.00
2018-07-22T19:51:45.208Z,69.40
2018-07-22T19:54:14.824Z,69.20
2018-07-22T19:56:44.334Z,69.70
2018-07-22T19:59:13.565Z,70.30
2018-07-22T20:01:43.437Z,70.30
2018-07-22T20:04:14.425Z,70.00
2018-07-22T20:06:44.449Z,70.10
2018-07-22T20:09:14.413Z,69.80
2018-07-22T20:11:43.997Z,69.70
2018-07-22T20:14:13.244Z,70.60
2018-07-22T20:16:42.419Z,71.50
2018-07-22T20:19:11.816Z,70.50
2018-07-22T20:21:41.177Z,69.90
2018-07-22T20:24:10.446Z,69.70
2018-07-22T20:26:39.897Z,69.90
2018-07-22T20:29:09.082Z,69.60
2018-07-22T20:31:38.321Z,69.50
2018-07-22T20:34:07.531Z,69.40
2018-07-22T20:36:36.728Z,69.40
2018-07-22T20:39:09.481Z,69.40
2018-07-22T20:41:39.538Z,69.50
2018-07-22T20:44:08.737Z,69.50
2018-07-22T20:46:37.936Z,69.60
2018-07-22T20:49:07.192Z,69.50
2018-07-22T20:51:36.420Z,69.50
2018-07-22T20:54:05.643Z,69.80
2018-07-22T20:56:34.931Z,70.00
2018-07-22T20:59:04.160Z,70.00
2018-07-22T21:01:33.353Z,70.50
2018-07-22T21:04:02.579Z,71.20
2018-07-22T21:06:31.812Z,71.30
2018-07-22T21:09:00.988Z,71.70
2018-07-22T21:11:49.510Z,71.80
2018-07-22T21:14:18.828Z,73.10
2018-07-22T21:16:48.054Z,74.60
2018-07-22T21:19:17.307Z,73.60
2018-07-22T21:21:46.550Z,74.30
2018-07-22T21:24:15.928Z,75.00
2018-07-22T21:26:45.385Z,76.00
2018-07-22T21:29:14.673Z,76.90
2018-07-22T21:31:43.889Z,78.10
2018-07-22T21:34:13.210Z,78.60
2018-07-22T21:36:42.451Z,79.50
2018-07-22T21:39:11.648Z,80.30
2018-07-22T21:41:40.937Z,80.90
2018-07-22T21:44:10.137Z,81.80
2018-07-22T21:46:39.395Z,82.00
2018-07-22T21:49:08.596Z,82.50
2018-07-22T21:51:37.931Z,83.50
2018-07-22T21:54:07.143Z,85.30
2018-07-22T21:56:36.351Z,83.60
2018-07-22T21:59:05.596Z,86.10
2018-07-22T22:01:34.826Z,84.60
2018-07-22T22:04:04.054Z,83.80
2018-07-22T22:06:33.263Z,84.50
2018-07-22T22:09:02.505Z,84.50
2018-07-22T22:11:31.708Z,85.40
2018-07-22T22:14:00.928Z,85.90
2018-07-22T22:16:30.156Z,86.30
2018-07-22T22:18:59.472Z,87.00
2018-07-22T22:21:28.823Z,87.40
2018-07-22T22:23:58.139Z,88.50
2018-07-22T22:26:27.348Z,89.70
2018-07-22T22:28:56.570Z,87.40
2018-07-22T22:31:25.811Z,89.70
2018-07-22T22:33:55.022Z,89.90
2018-07-22T22:36:24.227Z,89.70
2018-07-22T22:38:53.521Z,89.60
2018-07-22T22:41:22.807Z,90.20
2018-07-22T22:43:52.069Z,90.20
2018-07-22T22:46:21.301Z,90.20
2018-07-22T22:48:50.495Z,89.80
2018-07-22T22:51:19.823Z,90.40
2018-07-22T22:53:49.002Z,89.70
2018-07-22T22:56:18.296Z,89.60
2018-07-22T22:59:04.517Z,89.90
2018-07-22T23:01:33.724Z,90.10
2018-07-22T23:04:02.913Z,90.20
2018-07-22T23:06:32.220Z,90.20
2018-07-22T23:09:01.432Z,90.50
2018-07-22T23:11:30.649Z,90.80
2018-07-22T23:13:59.888Z,91.00
2018-07-22T23:16:29.100Z,90.40
2018-07-22T23:18:58.288Z,90.40
2018-07-22T23:21:27.478Z,90.80
2018-07-22T23:23:57.366Z,90.40
2018-07-22T23:26:26.578Z,90.30
2018-07-22T23:28:55.888Z,90.50
2018-07-22T23:33:54.556Z,91.00
2018-07-22T23:36:23.815Z,90.30
2018-07-22T23:38:53.021Z,91.00
2018-07-22T23:41:22.377Z,91.20
2018-07-22T23:43:51.665Z,91.00
2018-07-22T23:46:20.925Z,90.40
2018-07-22T23:48:50.175Z,90.50
2018-07-22T23:51:19.368Z,90.80
2018-07-22T23:53:48.569Z,91.10
2018-07-22T23:56:17.797Z,91.30
2018-07-22T23:58:47.089Z,91.50
